LGB - Long Beach (Daugherty Fld)

Pirep is a free, collaborative database of all public and private airports located within the United States. All pilots are welcome to contribute, edit, and improve any airport they have local knowledge about, no registration required.
Uploaded photos will be licensed under a CC BY-SA 4.0 license. Please only upload photos you have the rights to use.
Tags
Public
METAR / TAF
Edit Tags
Food
Camping
Lodging
Car Rental
Bicycles
Swimming
Golfing
Fishing
Hot Springs
Museum
Flying Clubs
Airpark
Upcoming Events
No upcoming events. Is anything happening here soon?
*
*
*

Where exactly on/near the airport is this event taking place?

Is there a webpage with more information for this event?

Who should be contacted for more information?

What is this event all about?

Repeat every
Description
Transient Parking
Last updated: 2023-04-13 19:03:23 PDT
Fuel Location
Last updated: 2023-04-13 19:03:23 PDT
Landing & Tie-down Fees
Crew Car Availability
Flying Clubs
WiFi Access
Airport Statistics
Location: Long Beach, CA
Elevation: 60ft
Sectional: Los Angeles
Activation date: Apr 1940
Fuel: 100LL, A (prices)
Runway 12/30: 10,000ft
Runway 08L/26R: 6,192ft
Runway 08R/26L: 3,918ft
Runway H3: 300ft
Runway H2: 20ft
Runway H4: 20ft
Runway H5: 20ft
Access: Open to the public
Current Weather — VFR
  • Weather data is strictly informational and not for flight planning purposes.
  • METAR
    2024-04-24 07:53:00 PDT
    Ceiling Wind Temperature Dewpoint Weather Visbility
    3,700ft 210° @ 5kt 60°F 51°F N/A 8SM
    Clouds: Broken @ 3,700ft
    Raw: KLGB 241453Z 21005KT 8SM BKN037 16/11 A3007 RMK AO2 SLP181 T01610111 53007
  • TAF
    2024-04-24 06:00:00 PDT – 2024-04-24 10:00:00 PDT
    Ceiling Wind Weather Visbility
    Sky clear Variable N/A 6SM
    Clouds: Scattered @ 3,500ft
    Raw: KLGB 241302Z 2413/2512 VRB03KT P6SM SCT035 FM241700 18006KT P6SM SCT040 FM242100 23012KT P6SM SKC FM250200 30010KT P6SM SKC FM250700 26006KT P6SM OVC035
  • TAF
    2024-04-24 10:00:00 PDT – 2024-04-24 14:00:00 PDT
    Ceiling Wind Weather Visbility
    Sky clear 180° @ 6kt N/A 6SM
    Clouds: Scattered @ 4,000ft
    Raw: KLGB 241302Z 2413/2512 VRB03KT P6SM SCT035 FM241700 18006KT P6SM SCT040 FM242100 23012KT P6SM SKC FM250200 30010KT P6SM SKC FM250700 26006KT P6SM OVC035
  • TAF
    2024-04-24 14:00:00 PDT – 2024-04-24 19:00:00 PDT
    Ceiling Wind Weather Visbility
    Sky clear 230° @ 12kt N/A 6SM
    Clouds: @ ft
    Raw: KLGB 241302Z 2413/2512 VRB03KT P6SM SCT035 FM241700 18006KT P6SM SCT040 FM242100 23012KT P6SM SKC FM250200 30010KT P6SM SKC FM250700 26006KT P6SM OVC035
  • TAF
    2024-04-24 19:00:00 PDT – 2024-04-25 00:00:00 PDT
    Ceiling Wind Weather Visbility
    Sky clear 300° @ 10kt N/A 6SM
    Clouds: @ ft
    Raw: KLGB 241302Z 2413/2512 VRB03KT P6SM SCT035 FM241700 18006KT P6SM SCT040 FM242100 23012KT P6SM SKC FM250200 30010KT P6SM SKC FM250700 26006KT P6SM OVC035
  • TAF
    2024-04-25 00:00:00 PDT – 2024-04-25 05:00:00 PDT
    Ceiling Wind Weather Visbility
    3,500ft 260° @ 6kt N/A 6SM
    Clouds: Overcast @ 3,500ft
    Raw: KLGB 241302Z 2413/2512 VRB03KT P6SM SCT035 FM241700 18006KT P6SM SCT040 FM242100 23012KT P6SM SKC FM250200 30010KT P6SM SKC FM250700 26006KT P6SM OVC035
Click/tap to add an annotation marker to the map
Airport Webcams
No webcams added yet.
Direct links to live image URLs will be displayed inline on this page. URLs to separate webpages will be linked to.
URL:
Direct links to live image URLs will be displayed inline on this page. URLs to separate webpages will be linked to.
URL:
Remarks
  • Prvdd day use only; opns coordinated with atct.
  • Ry 12/30 faa strength evaluation dc-10-10 440000 lbs; dc-10-30 550000 lbs; l-1011 460000 lbs.
  • All rys clsd 2200-0700 lcl excp ry 12/30.
  • Ry 12/30 lgtd distance remaining signs west side.
  • Noise limits (decibels sgl event noise exposure level) rwy 26r tkof 92.0 ldg 88.0; rwy 08l tkof 88.0 ldg 92.0; rwy 26l tkof 95.0 ldg 93.0; rwy 08r tkof 95.0 ldg 92.0. rwys 12 & 30 0700-2200 tkof 102.5 ldg 101.5; 0600-0700 & 2200-2300 tkof 90.0 ldg 90.0; 2300-0600 tkof 79.0 ldg 79.0.
Comments
Leave a comment What was your experience like at this airport?